Time;durP1;ratioP1;P1;durP2;ratioP2;P2;SDS_P1;SDS_P2;PMS_P1;PMS_P2;Temp;Humidity;BMP_temperature;BMP_pressure;BME280_temperature;BME280_humidity;BME280_pressure;Samples;Min_cycle;Max_cycle;Signal;HPM_P1;HPM_P2
2022/10/22 00:01:16;;;;;;;6.97;6.37;;;;;;;;;;5032294;28;20263;-78
2022/10/22 00:03:44;;;;;;;8.00;6.30;;;;;;;;;;5015898;28;20247;-78
2022/10/22 00:06:14;;;;;;;7.13;6.27;;;;;;;;;;5023762;28;20553;-78
2022/10/22 00:08:43;;;;;;;6.97;6.13;;;;;;;;;;5012918;28;20213;-78
2022/10/22 00:11:12;;;;;;;5.90;5.33;;;;;;;;;;5031204;28;20223;-78
2022/10/22 00:13:41;;;;;;;6.27;5.67;;;;;;;;;;5033191;28;20257;-78
2022/10/22 00:16:10;;;;;;;6.13;5.53;;;;;;;;;;5032078;28;20215;-78
2022/10/22 00:18:39;;;;;;;6.17;5.40;;;;;;;;;;5032299;28;20609;-78
2022/10/22 00:21:08;;;;;;;6.37;5.43;;;;;;;;;;5032491;28;20232;-79
2022/10/22 00:23:40;;;;;;;5.63;5.13;;;;;;;;;;5032772;28;20707;-78
2022/10/22 00:26:09;;;;;;;6.17;5.57;;;;;;;;;;5035761;28;20237;-78
2022/10/22 00:28:37;;;;;;;7.17;5.70;;;;;;;;;;5035783;28;20257;-78
2022/10/22 00:31:07;;;;;;;6.23;5.33;;;;;;;;;;5035548;28;20235;-78
2022/10/22 00:33:35;;;;;;;6.67;5.70;;;;;;;;;;5035733;28;20235;-78
2022/10/22 00:36:04;;;;;;;6.80;5.57;;;;;;;;;;5035715;28;20287;-78
2022/10/22 00:38:33;;;;;;;6.80;6.10;;;;;;;;;;5035556;28;20239;-78
2022/10/22 00:41:03;;;;;;;6.10;5.50;;;;;;;;;;5034694;28;20318;-78
2022/10/22 00:43:31;;;;;;;8.23;6.83;;;;;;;;;;5035651;28;20215;-78
2022/10/22 00:46:00;;;;;;;11.30;7.10;;;;;;;;;;5035933;28;20724;-79
2022/10/22 00:48:30;;;;;;;7.10;6.50;;;;;;;;;;5034184;28;20207;-79
2022/10/22 00:51:00;;;;;;;8.00;7.20;;;;;;;;;;5035599;28;20266;-78
2022/10/22 00:53:32;;;;;;;8.80;7.43;;;;;;;;;;5035448;28;20200;-78
2022/10/22 00:56:01;;;;;;;8.33;7.53;;;;;;;;;;5024302;28;20245;-78
2022/10/22 00:58:33;;;;;;;8.70;7.40;;;;;;;;;;5035711;28;20716;-78
2022/10/22 01:01:02;;;;;;;7.10;6.50;;;;;;;;;;5035474;28;20238;-78
2022/10/22 01:03:32;;;;;;;7.37;6.47;;;;;;;;;;5034763;28;20235;-78
2022/10/22 01:06:01;;;;;;;9.77;7.60;;;;;;;;;;5035173;28;20235;-78
2022/10/22 01:08:36;;;;;;;8.10;7.27;;;;;;;;;;5035385;28;20550;-78
2022/10/22 01:11:08;;;;;;;7.37;6.67;;;;;;;;;;5035507;28;20233;-79
2022/10/22 01:13:42;;;;;;;7.67;6.97;;;;;;;;;;5035423;28;20223;-79
2022/10/22 01:16:12;;;;;;;7.07;6.37;;;;;;;;;;5034518;28;20298;-78
2022/10/22 01:18:46;;;;;;;8.40;6.13;;;;;;;;;;5034057;28;20199;-78
2022/10/22 01:21:23;;;;;;;7.10;6.40;;;;;;;;;;5034460;28;20247;-78
2022/10/22 01:24:06;;;;;;;8.10;6.80;;;;;;;;;;5035378;28;20286;-79
2022/10/22 01:26:39;;;;;;;11.13;7.00;;;;;;;;;;5034912;28;20608;-78
2022/10/22 01:29:10;;;;;;;7.37;6.70;;;;;;;;;;5035038;28;20728;-78
2022/10/22 01:31:43;;;;;;;8.33;7.00;;;;;;;;;;5034541;28;20258;-78
2022/10/22 01:34:12;;;;;;;10.03;7.87;;;;;;;;;;5034764;28;20270;-78
2022/10/22 01:36:41;;;;;;;11.57;8.00;;;;;;;;;;5027821;28;20242;-78
2022/10/22 01:39:10;;;;;;;9.57;7.47;;;;;;;;;;5034818;28;20720;-79
2022/10/22 01:41:40;;;;;;;8.97;7.20;;;;;;;;;;5034930;28;20235;-78
2022/10/22 01:44:23;;;;;;;10.43;7.63;;;;;;;;;;5034515;28;20687;-78
2022/10/22 01:46:55;;;;;;;14.23;7.83;;;;;;;;;;5034229;28;20603;-78
2022/10/22 01:49:28;;;;;;;9.57;7.60;;;;;;;;;;5034330;28;20291;-78
2022/10/22 01:52:03;;;;;;;9.10;7.63;;;;;;;;;;5033974;28;20287;-79
2022/10/22 01:54:33;;;;;;;9.67;6.80;;;;;;;;;;5034412;28;20234;-78
2022/10/22 01:57:08;;;;;;;9.13;6.93;;;;;;;;;;5034184;28;20247;-78
2022/10/22 01:59:44;;;;;;;7.37;6.20;;;;;;;;;;5034369;28;20322;-79
2022/10/22 02:02:19;;;;;;;7.90;6.13;;;;;;;;;;5033984;28;20302;-78
2022/10/22 02:04:51;;;;;;;8.83;6.57;;;;;;;;;;5031706;28;20239;-78
2022/10/22 02:07:21;;;;;;;7.30;6.43;;;;;;;;;;5034490;28;20228;-78
2022/10/22 02:09:51;;;;;;;7.77;6.20;;;;;;;;;;5034446;28;20267;-78
2022/10/22 02:12:20;;;;;;;8.63;6.23;;;;;;;;;;5034165;28;20196;-79
2022/10/22 02:14:50;;;;;;;6.90;6.20;;;;;;;;;;5033373;28;20204;-79
2022/10/22 02:17:22;;;;;;;7.03;6.30;;;;;;;;;;5033770;28;20307;-78
2022/10/22 02:19:53;;;;;;;7.73;6.37;;;;;;;;;;5033335;28;20285;-79
2022/10/22 02:22:22;;;;;;;9.03;6.43;;;;;;;;;;5034191;28;20595;-79
2022/10/22 02:24:50;;;;;;;9.10;6.03;;;;;;;;;;5034113;28;20232;-78
2022/10/22 02:27:21;;;;;;;7.13;5.80;;;;;;;;;;5033982;28;20242;-78
2022/10/22 02:29:56;;;;;;;8.07;5.90;;;;;;;;;;5025083;28;20648;-78
2022/10/22 02:32:30;;;;;;;7.17;5.40;;;;;;;;;;5034185;28;20238;-78
2022/10/22 02:35:00;;;;;;;7.30;5.67;;;;;;;;;;5024651;28;20238;-78
2022/10/22 02:37:28;;;;;;;8.93;5.60;;;;;;;;;;5033674;28;20261;-78
2022/10/22 02:39:57;;;;;;;8.20;5.47;;;;;;;;;;5031449;28;20637;-78
2022/10/22 02:42:26;;;;;;;6.43;5.83;;;;;;;;;;5033793;28;20255;-78
2022/10/22 02:44:55;;;;;;;6.50;5.50;;;;;;;;;;5033671;28;20611;-78
2022/10/22 02:47:23;;;;;;;6.60;5.00;;;;;;;;;;5032660;28;20231;-79
2022/10/22 02:49:53;;;;;;;9.97;5.03;;;;;;;;;;5033154;28;20641;-78
2022/10/22 02:52:22;;;;;;;6.07;4.83;;;;;;;;;;5033522;28;20232;-78
2022/10/22 02:54:50;;;;;;;6.40;4.40;;;;;;;;;;5033290;28;20287;-78
2022/10/22 02:57:19;;;;;;;7.33;4.90;;;;;;;;;;5033584;28;20246;-78
2022/10/22 02:59:48;;;;;;;7.20;4.80;;;;;;;;;;5033424;28;20267;-79
2022/10/22 03:02:16;;;;;;;5.17;4.67;;;;;;;;;;5032522;28;20259;-79
2022/10/22 03:04:45;;;;;;;5.30;4.30;;;;;;;;;;5032616;28;20235;-78
2022/10/22 03:07:15;;;;;;;5.53;5.00;;;;;;;;;;5033412;28;20653;-78
2022/10/22 03:09:44;;;;;;;6.53;4.70;;;;;;;;;;5033143;28;20597;-78
2022/10/22 03:12:12;;;;;;;5.23;4.73;;;;;;;;;;5033452;28;20242;-78
2022/10/22 03:14:40;;;;;;;5.80;5.20;;;;;;;;;;5032978;28;20204;-79
2022/10/22 03:17:09;;;;;;;5.10;4.60;;;;;;;;;;5032639;28;20250;-78
2022/10/22 03:19:38;;;;;;;4.83;4.33;;;;;;;;;;5032476;28;20758;-78
2022/10/22 03:22:07;;;;;;;5.67;5.07;;;;;;;;;;5032812;28;20290;-78
2022/10/22 03:24:39;;;;;;;5.67;5.17;;;;;;;;;;5033348;28;20635;-78
2022/10/22 03:27:07;;;;;;;6.50;5.17;;;;;;;;;;5033564;28;20214;-78
2022/10/22 03:29:38;;;;;;;7.63;6.00;;;;;;;;;;5032669;28;20345;-78
2022/10/22 03:32:06;;;;;;;6.47;5.73;;;;;;;;;;5032540;28;20256;-78
2022/10/22 03:34:35;;;;;;;6.87;5.53;;;;;;;;;;5032617;28;20283;-78
2022/10/22 03:37:03;;;;;;;6.80;6.00;;;;;;;;;;5033273;28;20243;-78
2022/10/22 03:39:33;;;;;;;6.00;5.50;;;;;;;;;;5032710;28;20785;-79
2022/10/22 03:42:04;;;;;;;6.30;5.70;;;;;;;;;;5032927;28;20279;-78
2022/10/22 03:44:33;;;;;;;6.27;5.73;;;;;;;;;;5029451;28;20259;-78
2022/10/22 03:47:01;;;;;;;6.63;5.50;;;;;;;;;;5031836;28;20235;-78
2022/10/22 03:49:30;;;;;;;6.57;5.90;;;;;;;;;;5031864;28;20208;-78
2022/10/22 03:51:58;;;;;;;5.90;5.27;;;;;;;;;;5033221;28;20353;-78
2022/10/22 03:54:27;;;;;;;6.20;5.57;;;;;;;;;;5030161;28;20238;-78
2022/10/22 03:56:55;;;;;;;7.27;5.13;;;;;;;;;;5022006;28;20204;-78
2022/10/22 03:59:25;;;;;;;6.67;6.07;;;;;;;;;;5029833;28;20251;-78
2022/10/22 04:01:54;;;;;;;6.63;5.57;;;;;;;;;;5033790;28;20208;-78
2022/10/22 04:04:22;;;;;;;5.50;5.00;;;;;;;;;;5036346;28;20282;-78
2022/10/22 04:06:51;;;;;;;6.93;6.00;;;;;;;;;;5018994;28;20240;-78
2022/10/22 04:09:19;;;;;;;6.30;5.70;;;;;;;;;;5016765;28;20259;-78
2022/10/22 04:11:48;;;;;;;7.80;5.87;;;;;;;;;;5034173;28;20207;-78
2022/10/22 04:14:16;;;;;;;7.93;6.37;;;;;;;;;;5036308;28;20314;-78
2022/10/22 04:16:46;;;;;;;6.63;6.00;;;;;;;;;;5036062;28;20211;-78
2022/10/22 04:19:14;;;;;;;6.53;5.77;;;;;;;;;;5036750;28;20611;-78
2022/10/22 04:21:43;;;;;;;6.20;5.57;;;;;;;;;;5035605;28;20231;-78
2022/10/22 04:24:12;;;;;;;6.60;5.90;;;;;;;;;;5036053;28;20319;-78
2022/10/22 04:26:40;;;;;;;7.70;5.97;;;;;;;;;;5035852;28;20287;-78
2022/10/22 04:29:09;;;;;;;6.00;5.40;;;;;;;;;;5035707;28;20649;-79
2022/10/22 04:31:43;;;;;;;6.20;5.57;;;;;;;;;;5035899;28;20746;-78
2022/10/22 04:34:13;;;;;;;6.20;5.60;;;;;;;;;;5036162;28;20609;-78
2022/10/22 04:36:41;;;;;;;6.40;5.80;;;;;;;;;;5036002;28;20262;-79
2022/10/22 04:39:10;;;;;;;6.73;5.83;;;;;;;;;;5035880;28;20246;-78
2022/10/22 04:41:39;;;;;;;5.93;5.33;;;;;;;;;;5035643;28;20259;-78
2022/10/22 04:44:08;;;;;;;7.60;5.60;;;;;;;;;;5035409;28;20277;-78
2022/10/22 04:46:43;;;;;;;6.07;5.47;;;;;;;;;;5035565;28;20203;-79
2022/10/22 04:49:13;;;;;;;8.10;6.10;;;;;;;;;;5035572;28;20215;-79
2022/10/22 04:51:42;;;;;;;7.73;6.27;;;;;;;;;;5035613;28;20623;-78
2022/10/22 04:54:10;;;;;;;8.40;6.20;;;;;;;;;;5035947;28;20676;-78
2022/10/22 04:56:39;;;;;;;7.33;6.47;;;;;;;;;;5035234;28;20235;-78
2022/10/22 04:59:08;;;;;;;7.43;5.83;;;;;;;;;;5035595;28;20208;-78
2022/10/22 05:01:38;;;;;;;6.37;5.77;;;;;;;;;;5028619;28;20224;-78
2022/10/22 05:04:12;;;;;;;8.37;5.83;;;;;;;;;;5027211;28;20266;-78
2022/10/22 05:06:42;;;;;;;8.33;5.60;;;;;;;;;;5034174;28;20250;-78
2022/10/22 05:09:12;;;;;;;8.27;5.60;;;;;;;;;;5033962;28;20235;-78
2022/10/22 05:11:44;;;;;;;6.43;5.83;;;;;;;;;;5034341;28;20659;-78
2022/10/22 05:14:13;;;;;;;7.50;6.37;;;;;;;;;;5035032;28;20231;-79
2022/10/22 05:16:41;;;;;;;7.97;5.73;;;;;;;;;;5035099;28;20240;-79
2022/10/22 05:19:15;;;;;;;8.37;6.33;;;;;;;;;;5035278;28;20212;-79
2022/10/22 05:21:45;;;;;;;9.17;6.07;;;;;;;;;;5034553;28;20258;-78
2022/10/22 05:24:14;;;;;;;7.93;6.03;;;;;;;;;;5035091;28;20314;-79
2022/10/22 05:26:42;;;;;;;6.53;5.93;;;;;;;;;;5034222;28;20291;-79
2022/10/22 05:29:11;;;;;;;6.60;6.00;;;;;;;;;;5034757;28;20226;-79
2022/10/22 05:31:39;;;;;;;6.23;5.63;;;;;;;;;;5034790;28;20259;-79
2022/10/22 05:34:08;;;;;;;6.67;5.90;;;;;;;;;;5033052;28;21937;-79
2022/10/22 05:36:37;;;;;;;6.40;5.80;;;;;;;;;;5034420;28;20196;-79
2022/10/22 05:39:06;;;;;;;7.17;6.23;;;;;;;;;;5034280;28;20292;-78
2022/10/22 05:41:35;;;;;;;7.77;5.93;;;;;;;;;;5034884;28;20693;-79
2022/10/22 05:44:05;;;;;;;6.20;5.70;;;;;;;;;;5034876;28;20212;-78
2022/10/22 05:46:35;;;;;;;7.27;5.80;;;;;;;;;;5034468;28;20243;-79
2022/10/22 05:49:05;;;;;;;7.77;5.37;;;;;;;;;;5028970;28;20635;-79
2022/10/22 05:51:34;;;;;;;5.80;4.50;;;;;;;;;;5020363;28;20587;-79
2022/10/22 05:54:05;;;;;;;5.47;4.90;;;;;;;;;;5034428;28;20195;-79
2022/10/22 05:56:36;;;;;;;5.20;4.70;;;;;;;;;;5034488;28;20681;-79
2022/10/22 05:59:04;;;;;;;5.87;5.27;;;;;;;;;;5033158;28;20208;-78
2022/10/22 06:01:35;;;;;;;7.67;5.80;;;;;;;;;;5033078;28;20285;-79
2022/10/22 06:04:05;;;;;;;6.10;5.50;;;;;;;;;;5034192;28;20243;-79
2022/10/22 06:06:34;;;;;;;5.63;5.00;;;;;;;;;;5034231;28;20729;-78
2022/10/22 06:09:05;;;;;;;6.53;5.93;;;;;;;;;;5034018;28;20235;-79
2022/10/22 06:11:35;;;;;;;6.40;5.80;;;;;;;;;;5034015;28;20289;-79
2022/10/22 06:14:04;;;;;;;6.50;5.90;;;;;;;;;;5033744;28;20232;-79
2022/10/22 06:16:32;;;;;;;6.03;5.43;;;;;;;;;;5033848;28;20258;-79
2022/10/22 06:19:01;;;;;;;5.27;4.70;;;;;;;;;;5033984;28;20571;-79
2022/10/22 06:21:30;;;;;;;5.10;4.40;;;;;;;;;;5013891;28;20216;-79
2022/10/22 06:23:59;;;;;;;6.47;5.80;;;;;;;;;;5022768;28;20207;-79
2022/10/22 06:26:28;;;;;;;7.43;6.53;;;;;;;;;;5024260;28;20287;-79
2022/10/22 06:28:59;;;;;;;7.40;6.30;;;;;;;;;;5033747;28;20599;-79
2022/10/22 06:31:28;;;;;;;9.33;6.47;;;;;;;;;;5017452;28;20277;-80
2022/10/22 06:33:57;;;;;;;9.57;7.37;;;;;;;;;;5031722;28;20204;-79
2022/10/22 06:36:25;;;;;;;9.00;7.33;;;;;;;;;;5030088;28;20286;-79
2022/10/22 06:38:54;;;;;;;9.93;7.80;;;;;;;;;;5033857;28;20213;-79
2022/10/22 06:41:24;;;;;;;10.43;8.90;;;;;;;;;;5033607;28;20266;-79
2022/10/22 06:44:16;;;;;;;10.80;9.70;;;;;;;;;;5030325;28;20203;-79
2022/10/22 06:46:44;;;;;;;15.87;9.17;;;;;;;;;;5032702;28;20221;-79
2022/10/22 06:49:14;;;;;;;12.50;9.17;;;;;;;;;;5030771;28;20720;-79
2022/10/22 06:51:42;;;;;;;10.60;9.10;;;;;;;;;;5032945;28;20207;-79
2022/10/22 06:54:11;;;;;;;13.90;10.20;;;;;;;;;;5032426;28;20203;-79
2022/10/22 06:56:40;;;;;;;12.10;9.73;;;;;;;;;;5019279;28;20649;-79
2022/10/22 06:59:08;;;;;;;10.53;8.90;;;;;;;;;;5032466;28;20204;-79
2022/10/22 07:01:39;;;;;;;12.03;8.50;;;;;;;;;;5027052;28;20251;-79
2022/10/22 07:04:08;;;;;;;9.57;7.83;;;;;;;;;;5032900;28;20230;-79
2022/10/22 07:06:37;;;;;;;9.73;8.40;;;;;;;;;;5032466;28;20256;-79
2022/10/22 07:09:05;;;;;;;12.00;7.87;;;;;;;;;;5033278;28;20626;-79
2022/10/22 07:11:39;;;;;;;8.53;7.50;;;;;;;;;;5020653;28;20231;-79
2022/10/22 07:14:08;;;;;;;8.77;7.70;;;;;;;;;;5021660;28;20715;-79
2022/10/22 07:16:36;;;;;;;9.40;7.77;;;;;;;;;;5030020;28;20242;-79
2022/10/22 07:19:06;;;;;;;8.10;7.33;;;;;;;;;;5021043;28;20228;-79
2022/10/22 07:21:35;;;;;;;8.70;7.90;;;;;;;;;;5013389;28;20220;-79
2022/10/22 07:24:03;;;;;;;11.53;8.17;;;;;;;;;;5023523;28;20234;-79
2022/10/22 07:26:32;;;;;;;10.33;8.07;;;;;;;;;;5031872;28;20346;-79
2022/10/22 07:29:01;;;;;;;10.27;8.37;;;;;;;;;;5025349;28;20616;-79
2022/10/22 07:31:29;;;;;;;10.50;8.43;;;;;;;;;;5025857;28;20227;-79
2022/10/22 07:33:58;;;;;;;10.47;9.13;;;;;;;;;;5047475;28;20207;-79
2022/10/22 07:36:28;;;;;;;10.20;9.20;;;;;;;;;;5033481;28;20662;-79
2022/10/22 07:38:57;;;;;;;11.97;9.20;;;;;;;;;;5033848;28;20299;-79
2022/10/22 07:41:26;;;;;;;10.27;9.00;;;;;;;;;;5037051;28;20254;-79
2022/10/22 07:43:56;;;;;;;13.80;9.53;;;;;;;;;;5053143;28;20211;-79
2022/10/22 07:46:25;;;;;;;10.43;8.20;;;;;;;;;;5036302;28;20254;-79
2022/10/22 07:48:53;;;;;;;9.00;8.07;;;;;;;;;;5031081;28;20246;-79
2022/10/22 07:51:24;;;;;;;9.47;8.33;;;;;;;;;;5016763;28;20297;-79
2022/10/22 07:53:55;;;;;;;11.03;8.30;;;;;;;;;;5020102;28;20218;-79
2022/10/22 07:56:24;;;;;;;9.87;8.03;;;;;;;;;;5038099;28;20246;-79
2022/10/22 07:58:52;;;;;;;10.20;7.90;;;;;;;;;;5033514;28;20247;-79
2022/10/22 08:01:21;;;;;;;8.30;7.47;;;;;;;;;;5046818;28;20591;-79
2022/10/22 08:03:49;;;;;;;11.63;6.40;;;;;;;;;;5049962;28;20303;-79
2022/10/22 08:06:18;;;;;;;7.07;6.30;;;;;;;;;;5039054;28;20247;-79
2022/10/22 08:08:46;;;;;;;8.50;6.10;;;;;;;;;;5018292;28;20670;-79
2022/10/22 08:11:16;;;;;;;8.77;5.63;;;;;;;;;;5049638;28;20277;-78
2022/10/22 08:13:45;;;;;;;9.53;5.27;;;;;;;;;;5035265;28;20713;-79
2022/10/22 08:16:15;;;;;;;5.30;4.80;;;;;;;;;;5035934;28;20718;-79
2022/10/22 08:18:43;;;;;;;7.40;4.43;;;;;;;;;;5023903;28;20226;-78
2022/10/22 08:21:12;;;;;;;5.10;4.17;;;;;;;;;;5035892;28;20251;-78
2022/10/22 08:23:41;;;;;;;4.80;4.10;;;;;;;;;;5035135;28;20307;-78
2022/10/22 08:26:09;;;;;;;6.40;4.10;;;;;;;;;;5035241;28;20338;-79
2022/10/22 08:28:39;;;;;;;5.83;4.63;;;;;;;;;;5035411;28;20239;-78
2022/10/22 08:31:08;;;;;;;7.60;4.03;;;;;;;;;;5032266;28;20262;-78
2022/10/22 08:33:37;;;;;;;4.27;3.80;;;;;;;;;;5034906;28;20214;-79
2022/10/22 08:36:06;;;;;;;7.97;4.00;;;;;;;;;;5032767;28;20258;-78
2022/10/22 08:38:35;;;;;;;6.63;3.70;;;;;;;;;;5028145;28;20703;-78
2022/10/22 08:41:08;;;;;;;8.63;3.97;;;;;;;;;;5034020;28;21943;-78
2022/10/22 08:43:54;;;;;;;4.90;3.30;;;;;;;;;;5035505;28;20629;-78
2022/10/22 08:46:39;;;;;;;6.70;3.67;;;;;;;;;;5033861;28;20273;-77
2022/10/22 08:49:13;;;;;;;5.50;3.40;;;;;;;;;;5020011;28;20204;-78
2022/10/22 08:51:42;;;;;;;6.10;3.90;;;;;;;;;;5029144;28;20203;-78
2022/10/22 08:54:19;;;;;;;5.18;3.30;;;;;;;;;;5032301;28;20199;-78
2022/10/22 08:56:50;;;;;;;3.58;3.28;;;;;;;;;;5034173;28;20544;-78
2022/10/22 08:59:24;;;;;;;7.78;3.72;;;;;;;;;;5032797;28;20200;-78
2022/10/22 09:01:53;;;;;;;6.95;3.05;;;;;;;;;;5028861;28;20572;-77
2022/10/22 09:04:25;;;;;;;5.90;3.30;;;;;;;;;;5030704;28;20200;-77
2022/10/22 09:06:56;;;;;;;5.35;3.42;;;;;;;;;;5032079;28;20251;-78
2022/10/22 09:09:28;;;;;;;7.55;3.10;;;;;;;;;;5029306;28;20731;-77
2022/10/22 09:11:59;;;;;;;6.25;3.30;;;;;;;;;;5034548;28;20196;-78
2022/10/22 09:14:29;;;;;;;5.45;3.40;;;;;;;;;;5035220;28;20631;-77
2022/10/22 09:17:05;;;;;;;7.22;3.42;;;;;;;;;;5030113;28;20204;-77
2022/10/22 09:19:40;;;;;;;5.07;3.35;;;;;;;;;;5029980;28;20203;-78
2022/10/22 09:22:15;;;;;;;7.15;3.20;;;;;;;;;;5033994;28;20590;-77
2022/10/22 09:24:45;;;;;;;5.32;3.42;;;;;;;;;;5033924;28;20230;-78
2022/10/22 09:27:15;;;;;;;4.43;3.70;;;;;;;;;;5033961;28;20220;-78
2022/10/22 09:29:46;;;;;;;5.25;3.40;;;;;;;;;;5027297;28;20709;-78
2022/10/22 09:32:15;;;;;;;4.00;3.33;;;;;;;;;;5033241;28;20208;-78
2022/10/22 09:34:44;;;;;;;6.25;3.33;;;;;;;;;;5033604;28;20218;-77
2022/10/22 09:37:13;;;;;;;5.60;3.30;;;;;;;;;;5024799;28;20197;-78
2022/10/22 09:39:44;;;;;;;5.35;3.22;;;;;;;;;;5033811;28;20322;-78
2022/10/22 09:42:15;;;;;;;5.45;3.30;;;;;;;;;;5034572;28;20378;-78
2022/10/22 09:44:51;;;;;;;4.35;2.67;;;;;;;;;;5033601;28;20274;-78
2022/10/22 09:47:29;;;;;;;3.83;2.92;;;;;;;;;;5027006;28;20215;-78
2022/10/22 09:50:29;;;;;;;3.75;2.53;;;;;;;;;;5017755;28;20260;-78
2022/10/22 09:53:00;;;;;;;7.70;3.03;;;;;;;;;;5018112;28;20208;-77
2022/10/22 09:55:28;;;;;;;5.20;2.70;;;;;;;;;;5041987;28;20648;-78
2022/10/22 09:57:58;;;;;;;3.33;2.90;;;;;;;;;;5020995;28;20196;-78
2022/10/22 10:00:30;;;;;;;4.95;2.72;;;;;;;;;;5030285;28;20229;-78
2022/10/22 10:03:00;;;;;;;8.48;3.35;;;;;;;;;;5031940;28;20235;-79
2022/10/22 10:05:30;;;;;;;6.32;3.25;;;;;;;;;;5028154;28;20204;-78
2022/10/22 10:08:00;;;;;;;5.65;3.03;;;;;;;;;;5025370;28;20282;-78
2022/10/22 10:10:34;;;;;;;8.80;3.42;;;;;;;;;;5027994;28;20223;-78
2022/10/22 10:13:07;;;;;;;6.00;3.45;;;;;;;;;;5030489;28;20543;-78
2022/10/22 10:15:39;;;;;;;5.18;3.03;;;;;;;;;;5031331;28;20291;-78
2022/10/22 10:18:15;;;;;;;4.25;2.90;;;;;;;;;;5016601;28;20623;-78
2022/10/22 10:20:47;;;;;;;6.85;3.10;;;;;;;;;;5017295;28;20254;-78
2022/10/22 10:23:23;;;;;;;4.63;2.95;;;;;;;;;;5033649;28;20642;-79
2022/10/22 10:25:56;;;;;;;5.63;3.28;;;;;;;;;;5031469;28;20228;-79
2022/10/22 10:28:32;;;;;;;6.07;3.22;;;;;;;;;;5031131;28;20192;-78
2022/10/22 10:31:07;;;;;;;5.93;2.92;;;;;;;;;;5026783;28;21455;-78
2022/10/22 10:33:45;;;;;;;4.35;2.60;;;;;;;;;;5019411;28;20194;-78
2022/10/22 10:36:18;;;;;;;6.07;3.10;;;;;;;;;;5022035;28;20242;-79
2022/10/22 10:38:53;;;;;;;7.35;3.25;;;;;;;;;;5033266;28;20199;-78
2022/10/22 10:41:27;;;;;;;3.75;2.83;;;;;;;;;;5033838;28;20707;-79
2022/10/22 10:44:04;;;;;;;7.75;2.70;;;;;;;;;;5033815;28;20184;-79
2022/10/22 10:46:40;;;;;;;6.75;3.00;;;;;;;;;;5033426;28;20329;-78
2022/10/22 10:49:10;;;;;;;8.25;2.65;;;;;;;;;;5033596;28;20265;-79
2022/10/22 10:51:41;;;;;;;6.85;2.85;;;;;;;;;;5033625;28;20232;-78
2022/10/22 10:54:15;;;;;;;6.07;2.60;;;;;;;;;;5033146;28;20207;-79
2022/10/22 10:56:46;;;;;;;8.75;2.75;;;;;;;;;;5033476;28;20226;-79
2022/10/22 10:59:18;;;;;;;4.90;2.80;;;;;;;;;;5033765;28;20188;-80
2022/10/22 11:01:53;;;;;;;6.85;2.80;;;;;;;;;;5033261;28;20649;-79
2022/10/22 11:04:35;;;;;;;7.07;2.42;;;;;;;;;;5034007;28;20190;-79
2022/10/22 11:07:06;;;;;;;5.55;2.53;;;;;;;;;;5033982;28;20262;-79
2022/10/22 11:09:46;;;;;;;6.63;3.03;;;;;;;;;;5032951;28;20235;-79
2022/10/22 11:12:21;;;;;;;9.85;2.72;;;;;;;;;;5033382;28;20235;-78
2022/10/22 11:14:57;;;;;;;4.82;2.40;;;;;;;;;;5032839;28;20634;-79
2022/10/22 11:17:30;;;;;;;6.28;2.90;;;;;;;;;;5033319;28;20207;-79
2022/10/22 11:20:01;;;;;;;4.47;2.67;;;;;;;;;;5032956;28;20247;-79
2022/10/22 11:22:30;;;;;;;5.85;3.13;;;;;;;;;;5033311;28;20631;-79
2022/10/22 11:25:02;;;;;;;6.95;3.00;;;;;;;;;;5033047;28;20211;-79
2022/10/22 11:27:32;;;;;;;6.50;2.75;;;;;;;;;;5033179;28;20220;-79
2022/10/22 11:30:03;;;;;;;8.45;3.00;;;;;;;;;;5034018;28;20677;-80
2022/10/22 11:32:34;;;;;;;7.78;2.90;;;;;;;;;;5033812;28;20648;-80
2022/10/22 11:35:05;;;;;;;9.23;3.10;;;;;;;;;;5035666;28;20638;-80
2022/10/22 11:37:37;;;;;;;6.47;2.95;;;;;;;;;;5033776;28;20231;-80
2022/10/22 11:40:08;;;;;;;6.43;2.67;;;;;;;;;;5033205;28;20309;-78
2022/10/22 11:42:38;;;;;;;5.78;2.45;;;;;;;;;;5033454;28;20191;-79
2022/10/22 11:45:07;;;;;;;5.68;2.22;;;;;;;;;;5033027;28;20247;-79
2022/10/22 11:47:52;;;;;;;5.20;2.28;;;;;;;;;;5032643;28;20227;-78
2022/10/22 11:50:23;;;;;;;6.78;2.20;;;;;;;;;;5032804;28;20220;-78
2022/10/22 11:52:59;;;;;;;6.05;2.20;;;;;;;;;;5033209;28;20191;-79
2022/10/22 11:55:33;;;;;;;5.97;2.55;;;;;;;;;;5032993;28;20227;-78
2022/10/22 11:58:02;;;;;;;6.22;2.53;;;;;;;;;;5031588;28;20224;-77
2022/10/22 12:00:36;;;;;;;5.22;2.10;;;;;;;;;;5032762;28;20548;-78
2022/10/22 12:03:16;;;;;;;5.65;2.40;;;;;;;;;;5032267;28;20188;-79
2022/10/22 12:05:45;;;;;;;7.95;2.00;;;;;;;;;;5032800;28;20203;-79
2022/10/22 12:08:17;;;;;;;5.55;2.60;;;;;;;;;;5032821;28;20258;-79
2022/10/22 12:10:51;;;;;;;5.07;2.55;;;;;;;;;;5033040;28;20235;-79
2022/10/22 12:13:23;;;;;;;6.05;2.28;;;;;;;;;;5032760;28;20180;-79
2022/10/22 12:15:53;;;;;;;7.45;2.65;;;;;;;;;;5032508;28;20251;-79
2022/10/22 12:18:26;;;;;;;7.95;2.70;;;;;;;;;;5032028;28;20238;-79
2022/10/22 12:20:55;;;;;;;5.97;2.47;;;;;;;;;;5034636;28;20704;-78
2022/10/22 12:23:27;;;;;;;8.20;2.60;;;;;;;;;;5036170;28;20207;-79
2022/10/22 12:25:56;;;;;;;5.82;2.33;;;;;;;;;;5036318;28;20185;-79
2022/10/22 12:28:24;;;;;;;4.38;2.58;;;;;;;;;;5036204;28;20248;-79
2022/10/22 12:30:53;;;;;;;4.10;2.22;;;;;;;;;;5035895;28;20216;-79
2022/10/22 12:33:22;;;;;;;6.75;2.33;;;;;;;;;;5035794;28;20228;-78
2022/10/22 12:35:56;;;;;;;8.48;2.38;;;;;;;;;;5036013;28;20262;-78
2022/10/22 12:38:25;;;;;;;5.55;2.83;;;;;;;;;;5035959;28;20603;-78
2022/10/22 12:40:55;;;;;;;5.03;2.33;;;;;;;;;;5034660;28;20263;-76
2022/10/22 12:43:26;;;;;;;6.28;2.78;;;;;;;;;;5033992;28;20215;-79
2022/10/22 12:45:54;;;;;;;6.15;2.50;;;;;;;;;;5033138;28;20622;-78
2022/10/22 12:48:24;;;;;;;6.20;2.85;;;;;;;;;;5033065;28;20247;-79
2022/10/22 12:50:55;;;;;;;7.35;2.67;;;;;;;;;;5032829;28;20224;-79
2022/10/22 12:53:25;;;;;;;5.20;2.65;;;;;;;;;;5032696;28;20214;-79
2022/10/22 12:55:54;;;;;;;4.50;2.33;;;;;;;;;;5032913;28;20639;-79
2022/10/22 12:58:26;;;;;;;3.42;2.60;;;;;;;;;;5028868;28;20236;-79
2022/10/22 13:00:57;;;;;;;5.80;2.47;;;;;;;;;;5029755;28;20302;-79
2022/10/22 13:03:28;;;;;;;5.65;2.95;;;;;;;;;;5027602;28;20198;-79
2022/10/22 13:05:58;;;;;;;7.88;2.58;;;;;;;;;;5032251;28;20238;-79
2022/10/22 13:08:28;;;;;;;5.20;2.50;;;;;;;;;;5032557;28;20314;-78
2022/10/22 13:10:57;;;;;;;5.63;2.55;;;;;;;;;;5033237;28;20713;-78
2022/10/22 13:13:33;;;;;;;8.30;2.40;;;;;;;;;;5033292;28;20215;-79
2022/10/22 13:16:19;;;;;;;6.85;2.30;;;;;;;;;;5032092;28;20969;-78
2022/10/22 13:18:48;;;;;;;4.65;2.45;;;;;;;;;;5032075;28;20206;-78
2022/10/22 13:21:34;;;;;;;4.97;2.10;;;;;;;;;;5032438;28;20283;-78
2022/10/22 13:24:04;;;;;;;6.72;2.50;;;;;;;;;;5035455;28;20203;-78
2022/10/22 13:26:34;;;;;;;5.45;2.50;;;;;;;;;;5034607;28;20235;-79
2022/10/22 13:29:03;;;;;;;4.70;2.22;;;;;;;;;;5032689;28;20251;-77
2022/10/22 13:31:32;;;;;;;5.15;2.15;;;;;;;;;;5029127;28;20316;-79
2022/10/22 13:34:04;;;;;;;5.43;2.28;;;;;;;;;;5027086;28;20219;-79
2022/10/22 13:36:40;;;;;;;4.32;2.20;;;;;;;;;;5032547;28;20208;-78
2022/10/22 13:39:13;;;;;;;7.35;2.33;;;;;;;;;;5032282;28;20254;-78
2022/10/22 13:41:41;;;;;;;6.45;2.53;;;;;;;;;;4684224;28;9999991;-78
2022/10/22 13:44:10;;;;;;;4.05;2.20;;;;;;;;;;5017917;28;20211;-79
2022/10/22 13:46:41;;;;;;;4.03;2.03;;;;;;;;;;5031972;28;20295;-79
2022/10/22 13:49:14;;;;;;;4.05;2.20;;;;;;;;;;5032084;28;20315;-78
2022/10/22 13:51:44;;;;;;;8.30;2.50;;;;;;;;;;5028679;28;20342;-78
2022/10/22 13:54:15;;;;;;;4.95;2.10;;;;;;;;;;5032035;28;20236;-78
2022/10/22 13:56:44;;;;;;;5.10;2.20;;;;;;;;;;5032690;28;20207;-77
2022/10/22 13:59:13;;;;;;;7.03;2.47;;;;;;;;;;5022042;28;20239;-78
2022/10/22 14:01:46;;;;;;;4.28;2.10;;;;;;;;;;5044643;28;20207;-78
2022/10/22 14:04:14;;;;;;;5.07;2.20;;;;;;;;;;5027883;28;20314;-78
2022/10/22 14:06:44;;;;;;;6.82;2.10;;;;;;;;;;5033384;28;20232;-79
2022/10/22 14:09:16;;;;;;;5.03;1.95;;;;;;;;;;5031805;28;20223;-79
2022/10/22 14:11:44;;;;;;;5.72;2.00;;;;;;;;;;5032064;28;20196;-78
2022/10/22 14:14:15;;;;;;;7.95;2.15;;;;;;;;;;5031493;28;20621;-77
2022/10/22 14:16:44;;;;;;;4.57;1.85;;;;;;;;;;5032621;28;20297;-77
2022/10/22 14:19:16;;;;;;;3.15;1.80;;;;;;;;;;5032312;28;20227;-78
2022/10/22 14:21:47;;;;;;;2.67;1.70;;;;;;;;;;5032725;28;20204;-78
2022/10/22 14:24:16;;;;;;;5.20;1.75;;;;;;;;;;5030928;28;20203;-78
2022/10/22 14:26:44;;;;;;;3.47;1.80;;;;;;;;;;5031455;28;20241;-78
2022/10/22 14:29:13;;;;;;;5.13;1.88;;;;;;;;;;5032290;28;20282;-78
2022/10/22 14:31:42;;;;;;;3.65;1.50;;;;;;;;;;5032842;28;20266;-79
2022/10/22 14:34:13;;;;;;;4.47;2.00;;;;;;;;;;5031795;28;20204;-79
2022/10/22 14:36:42;;;;;;;4.70;1.80;;;;;;;;;;5028795;28;20204;-79
2022/10/22 14:39:13;;;;;;;3.50;1.63;;;;;;;;;;5031237;28;20604;-78
2022/10/22 14:41:42;;;;;;;6.32;1.77;;;;;;;;;;5032235;28;20306;-79
2022/10/22 14:44:12;;;;;;;6.13;2.03;;;;;;;;;;5029917;28;20721;-79
2022/10/22 14:46:42;;;;;;;3.83;1.50;;;;;;;;;;5031909;28;20574;-79
2022/10/22 14:49:12;;;;;;;5.90;1.85;;;;;;;;;;5032533;28;20220;-78
2022/10/22 14:51:40;;;;;;;5.28;1.90;;;;;;;;;;5022610;28;20216;-78
2022/10/22 14:54:09;;;;;;;4.32;1.77;;;;;;;;;;5029744;28;20212;-78
2022/10/22 14:56:39;;;;;;;6.65;2.05;;;;;;;;;;5022149;28;20295;-78
2022/10/22 14:59:07;;;;;;;6.47;2.03;;;;;;;;;;5030273;28;20211;-79
2022/10/22 15:01:37;;;;;;;4.38;1.90;;;;;;;;;;5031181;28;20250;-78